Flight Track Log - Related Links

Times and Time Zones

All times are in EDT time to prevent confusion due to time zone crossing. See the SKW6440 flight status page for this flight to view local times or setup timezone preferences in your user account.


Time Position Orientation Groundspeed Altitude Reporting Facility
EDT Latitude Longitude Course Direction KTS MPH feet Rate Location/Type
Tue 10:27:10 PM 38.8689 -104.6608 241° Southwest 217 250 9,000  Level Denver Center
Tue 10:28:12 PM 38.8161 -104.6194 149° Southeast 230 265 10,400 1,463 Climbing Denver Center
Tue 10:29:13 PM 38.7444 -104.5628 148° Southeast 263 303 12,000 1,415 Climbing Denver Center
Tue 10:30:00 PM 38.3234 -104.4378 152° Southeast  Level FlightAware Approximate
Tue 10:30:15 PM 38.6756 -104.5050 147° Southeast 299 344 13,300  Level Denver Center
Tue 10:31:00 PM 38.2596 -104.4879 247° West  Level FlightAware Approximate
Tue 10:31:17 PM 38.6014 -104.4456 148° Southeast 320 368 14,800  Level Denver Center
Tue 10:32:00 PM 38.2157 -104.6079 241° Southwest  Level FlightAware Approximate
Tue 10:32:19 PM 38.5150 -104.3672 145° Southeast 336 387 16,600  Level Denver Center
Tue 10:33:20 PM 38.4431 -104.2883 139° Southeast 347 399 18,100 1,659 Climbing Denver Center
Tue 10:34:22 PM 38.3575 -104.1986 141° Southeast 354 407 20,000 1,161 Climbing Denver Center
Tue 10:35:24 PM 38.2850 -104.1194 139° Southeast 356 410 20,500 919 Climbing Denver Center
Tue 10:36:26 PM 38.1894 -104.0417 147° Southeast 364 419 21,900 878 Climbing Denver Center
Tue 10:37:27 PM 38.1022 -103.9908 155° Southeast 361 415 22,300 488 Climbing Denver Center
Tue 10:38:29 PM 38.0094 -103.9483 160° South 367 422 22,900 726 Climbing Denver Center
Tue 10:39:31 PM 37.9008 -103.9033 162° South 366 421 23,800 629 Climbing Denver Center
Tue 10:40:33 PM 37.8106 -103.9217 189° South 356 410 24,200 732 Climbing Denver Center
Tue 10:41:34 PM 37.7717 -104.0403 248° West 340 391 25,300 976 Climbing Denver Center
Tue 10:42:36 PM 37.7497 -104.1500 256° West 341 392 26,200 823 Climbing Denver Center
Tue 10:43:38 PM 37.7186 -104.2794 253° West 347 399 27,000 726 Climbing Denver Center
Tue 10:44:40 PM 37.6922 -104.3936 254° West 354 407 27,700 537 Climbing Denver Center
Tue 10:45:41 PM 37.6600 -104.5294 253° West 362 417 28,100 244 Climbing Denver Center
Tue 10:46:43 PM 37.6303 -104.6517 253° West 381 438 28,200 242 Climbing Denver Center
Tue 10:47:45 PM 37.5953 -104.7975 253° West 389 448 28,600 341 Climbing Denver Center
Tue 10:48:46 PM 37.5650 -104.9247 253° West 394 453 28,900 585 Climbing Denver Center
Tue 10:49:48 PM 37.5294 -105.0717 253° West 394 453 29,800 823 Climbing Denver Center
Tue 10:50:50 PM 37.4983 -105.2014 253° West 382 440 30,600 484 Climbing Denver Center
Tue 10:51:52 PM 37.4681 -105.3222 253° West 378 435 30,800 537 Climbing Denver Center
Tue 10:52:53 PM 37.4389 -105.4447 253° West 381 438 31,700 585 Climbing Denver Center
Tue 10:53:55 PM 37.4036 -105.5850 252° West 378 435 32,000 145 Climbing Denver Center
Tue 10:54:57 PM 37.3722 -105.7061 252° West 380 437 32,000  Level Denver Center
Tue 10:55:58 PM 37.3372 -105.8517 253° West 389 448 32,000  Level Denver Center
Tue 10:57:00 PM 37.3047 -105.9789 252° West 399 459 32,000  Level Denver Center
Tue 10:58:14 PM 37.2617 -106.1506 253° West 404 465 32,000  Level Denver Center
Tue 10:59:16 PM 37.2286 -106.2814 252° West 410 472 32,000  Level Denver Center
Tue 11:00:18 PM 37.1878 -106.4344 252° West 415 478 32,000  Level Denver Center
Tue 11:01:19 PM 37.1561 -106.5661 253° West 413 475 32,000  Level Denver Center
Tue 11:02:21 PM 37.1158 -106.7175 252° West 410 472 32,000  Level Denver Center
Tue 11:03:23 PM 37.0836 -106.8447 252° West 403 464 32,000  Level Denver Center
Tue 11:04:24 PM 37.0497 -106.9733 252° West 405 466 32,000  Level Denver Center
Tue 11:05:26 PM 37.0111 -107.1222 252° West 404 465 32,000  Level Denver Center
Tue 11:06:28 PM 36.9767 -107.2500 251° West 405 466 32,000  Level Denver Center
Tue 11:07:41 PM 36.9369 -107.3992 252° West 406 467 32,000  Level Denver Center
Tue 11:08:43 PM 36.8975 -107.5478 252° West 405 466 32,000  Level Denver Center
Tue 11:09:57 PM 36.8519 -107.7147 251° West 400 460 32,000  Level Denver Center
Tue 11:10:59 PM 36.8117 -107.8633 251° West 404 465 32,000  Level Denver Center
Tue 11:12:12 PM 36.7775 -107.9889 251° West 402 463 32,000  Level Denver Center
Tue 11:13:14 PM 36.7361 -108.1608 253° West 406 467 32,000  Level Denver Center
Tue 11:14:16 PM 36.7125 -108.2903 257° West 403 464 32,000  Level Denver Center
Tue 11:15:17 PM 36.6850 -108.4419 257° West 404 465 32,000  Level Denver Center
Tue 11:16:19 PM 36.6614 -108.5711 257° West 402 463 32,000  Level Denver Center
Tue 11:17:21 PM 36.6328 -108.7211 257° West 401 461 32,000  Level Denver Center
Tue 11:18:22 PM 36.6078 -108.8500 256° West 402 463 32,000  Level Denver Center
Tue 11:19:24 PM 36.5836 -108.9769 257° West 397 457 32,000  Level Denver Center
Tue 11:20:25 PM 36.5553 -109.1267 257° West 399 459 32,000  Level Denver Center
Tue 11:21:27 PM 36.5297 -109.2564 256° West 403 464 32,000  Level Denver Center
Tue 11:22:28 PM 36.5097 -109.3639 257° West 404 465 32,000  Level Denver Center
Tue 11:23:42 PM 36.4756 -109.5353 256° West 402 463 32,000  Level Denver Center
Tue 11:24:44 PM 36.4419 -109.7064 256° West 400 460 32,000  Level Denver Center
Tue 11:25:45 PM 36.4150 -109.8353 255° West 403 464 32,000  Level Denver Center
Tue 11:26:47 PM 36.3864 -109.9856 257° West 401 461 32,000  Level Denver Center
Tue 11:28:39 PM 36.3339 -110.2331 255° West 403 464 32,000  Level Los Angeles Center
Tue 11:29:41 PM 36.3075 -110.3672 256° West 401 461 32,000  Level Los Angeles Center
Tue 11:30:42 PM 36.2806 -110.5014 256° West 402 463 32,000  Level Los Angeles Center
Tue 11:31:44 PM 36.2528 -110.6333 255° West 398 458 32,000  Level Los Angeles Center
Tue 11:32:46 PM 36.2247 -110.7658 255° West 398 458 32,000  Level Los Angeles Center
Tue 11:33:48 PM 36.1922 -110.9256 256° West 399 459 32,000  Level Los Angeles Center
Tue 11:34:59 PM 36.1656 -111.0569 256° West 400 460 32,000  Level Denver Center
Tue 11:36:00 PM 36.1308 -111.2153 255° West 399 459 32,000  Level Denver Center
Tue 11:37:01 PM 36.1039 -111.3469 256° West 397 457 32,000  Level Denver Center
Tue 11:38:03 PM 36.0767 -111.4789 256° West 397 457 32,000  Level Denver Center
Tue 11:39:04 PM 36.0489 -111.6097 255° West 395 455 32,000  Level Denver Center
Tue 11:39:58 PM 36.0256 -111.7164 255° West 396 456 32,000  Level Los Angeles Center
Tue 11:41:00 PM 35.9983 -111.8489 256° West 397 457 32,000  Level Los Angeles Center
Tue 11:42:02 PM 35.9656 -112.0033 255° West 395 455 32,000  Level Los Angeles Center
Tue 11:43:03 PM 35.9375 -112.1336 255° West 396 456 32,000  Level Los Angeles Center
Tue 11:44:05 PM 35.9042 -112.2606 252° West 393 452 32,000  Level Los Angeles Center
Tue 11:45:07 PM 35.8594 -112.3828 246° West 396 456 32,000  Level Los Angeles Center
Tue 11:46:09 PM 35.8175 -112.5069 247° West 395 455 32,000  Level Los Angeles Center
Tue 11:47:10 PM 35.7667 -112.6542 247° West 395 455 32,000  Level Los Angeles Center
Tue 11:48:12 PM 35.7250 -112.7775 247° West 395 455 32,000  Level Los Angeles Center
Tue 11:49:14 PM 35.6778 -112.9122 247° West 397 457 32,000  Level Los Angeles Center
Tue 11:50:16 PM 35.6322 -113.0403 246° West 399 459 32,000  Level Los Angeles Center
Tue 11:51:17 PM 35.5889 -113.1650 247° West 396 456 32,000  Level Los Angeles Center
Tue 11:52:19 PM 35.5439 -113.2908 246° West 391 450 32,000  Level Los Angeles Center
Tue 11:53:21 PM 35.5014 -113.4119 247° West 391 450 32,000  Level Los Angeles Center
Tue 11:54:22 PM 35.4586 -113.5331 247° West 392 451 32,000  Level Los Angeles Center
Tue 11:55:24 PM 35.4156 -113.6531 246° West 390 449 32,000  Level Los Angeles Center
Tue 11:56:26 PM 35.3725 -113.7744 247° West 390 449 32,000  Level Los Angeles Center
Tue 11:57:27 PM 35.3278 -113.8939 245° Southwest 390 449 32,000  Level Los Angeles Center
Tue 11:58:29 PM 35.2747 -114.0400 246° West 383 441 32,000  Level Los Angeles Center
Tue 11:59:31 PM 35.2308 -114.1633 246° West 389 448 32,000  Level Los Angeles Center
Wed 12:00:32 AM 35.1856 -114.2878 246° West 397 457 32,000  Level Los Angeles Center
Wed 12:01:33 AM 35.1494 -114.3828 245° Southwest 391 450 32,000  Level Los Angeles Center
Wed 12:02:35 AM 35.0956 -114.5294 246° West 393 452 32,000  Level Los Angeles Center
Wed 12:03:37 AM 35.0497 -114.6547 246° West 402 463 32,000  Level Los Angeles Center
Wed 12:04:39 AM 35.0044 -114.7769 246° West 395 455 32,000  Level Los Angeles Center
Wed 12:05:40 AM 34.9597 -114.8994 246° West 395 455 32,000  Level Los Angeles Center
Wed 12:06:42 AM 34.9139 -115.0208 245° Southwest 392 451 32,000 -390 Level Los Angeles Center
Wed 12:07:43 AM 34.8594 -115.1672 246° West 394 453 31,200 -878 Descending Los Angeles Center
Wed 12:08:45 AM 34.8175 -115.2789 245° Southwest 364 419 30,200 -585 Descending Los Angeles Center
Wed 12:09:46 AM 34.7794 -115.3803 245° Southwest 334 384 30,000 -98 Descending Los Angeles Center
Wed 12:10:48 AM 34.7403 -115.4819 245° Southwest 332 382 30,000  Level Los Angeles Center
Wed 12:11:49 AM 34.7028 -115.5817 245° Southwest 342 394 30,000  Level Los Angeles Center
Wed 12:12:51 AM 34.6631 -115.6883 246° West 345 397 30,000  Level Los Angeles Center
Wed 12:13:52 AM 34.6300 -115.7731 245° Southwest 346 398 30,000  Level Los Angeles Center
Wed 12:14:54 AM 34.5697 -115.9294 245° Southwest 363 418 30,000  Level Los Angeles Center
Wed 12:15:56 AM 34.5242 -116.0456 245° Southwest 376 433 30,000 -146 Level Los Angeles Center
Wed 12:16:57 AM 34.4792 -116.1639 245° Southwest 383 441 29,700 -738 Descending Los Angeles Center
Wed 12:17:58 AM 34.4333 -116.2825 245° Southwest 387 445 28,500 -1,171 Descending Los Angeles Center
Wed 12:19:00 AM 34.3894 -116.3961 245° Southwest 377 434 27,300 -732 Descending Los Angeles Center
Wed 12:20:01 AM 34.3453 -116.5089 245° Southwest 373 429 27,000 -829 Descending Los Angeles Center
Wed 12:21:03 AM 34.3000 -116.6225 244° Southwest 375 432 25,600 -1,610 Descending Los Angeles Center
Wed 12:22:04 AM 34.2561 -116.7328 244° Southwest 366 421 23,700 -1,610 Descending Los Angeles Center
Wed 12:23:06 AM 34.2225 -116.8183 245° Southwest 355 409 22,300 -1,600 Descending Los Angeles Center
Wed 12:24:19 AM 34.1686 -116.9539 244° Southwest 319 367 20,100 -1,467 Descending Los Angeles Center
Wed 12:25:21 AM 34.1256 -117.0614 244° Southwest 299 344 19,000 -635 Descending Los Angeles Center
Wed 12:26:03 AM 34.1000 -117.1333 247° West 295 339 19,000 -294 Level Southern California TRACON
Wed 12:27:03 AM 34.0667 -117.2167 244° Southwest 304 350 18,500 -1,050 Descending Southern California TRACON
Wed 12:28:03 AM 34.0500 -117.3167 259° West 276 318 16,900 -1,700 Descending Southern California TRACON
Wed 12:29:03 AM 34.0333 -117.4000 256° West 278 320 15,100 -1,850 Descending Southern California TRACON
Wed 12:30:03 AM 34.0333 -117.5000 270° West 274 315 13,200 -1,650 Descending Southern California TRACON
Wed 12:31:03 AM 34.0333 -117.5833 270° West 273 314 11,800 -1,400 Descending Southern California TRACON
Wed 12:32:03 AM 34.0167 -117.6833 259° West 251 289 10,400 -1,300 Descending Southern California TRACON
Wed 12:33:03 AM 34.0167 -117.7667 270° West 270 311 9,200 -1,300 Descending Southern California TRACON
Wed 12:34:03 AM 34.0000 -117.8667 259° West 271 312 7,800 -1,100 Descending Southern California TRACON
Wed 12:35:03 AM 34.0000 -117.9500 270° West 262 302 7,000 -750 Descending Southern California TRACON
Wed 12:36:03 AM 33.9833 -118.0167 253° West 202 232 6,300 -992 Descending Southern California TRACON
Wed 12:37:04 AM 33.9833 -118.0833 270° West 201 231 5,000 -1,091 Descending Southern California TRACON
Wed 12:38:04 AM 33.9833 -118.1500 270° West 205 236 4,100 -1,000 Descending Southern California TRACON
Wed 12:38:40 AM 33.9736 -118.1939 255° West 206 237 3,400 -1,113 Descending Los Angeles Center
Wed 12:39:41 AM 33.9669 -118.2628 263° West 209 241 2,300 -934 Descending Los Angeles Center
Wed 12:40:42 AM 33.9603 -118.3211 262° West 188 216 1,500 -780 Descending Los Angeles Center
Wed 12:41:44 AM 33.9572 -118.3656 265° West 155 178 700 -634 Descending Los Angeles Center
Wed 12:42:45 AM 33.9514 -118.4119 261° West 142 163 200 -492 Descending Los Angeles Center
Wed 12:44:00 AM 33.9425 -118.4081 180° South  Level Estimated

Login

Don't have an account? Register now (free) for customized features, flight alerts, and more!